sensor_id;sensor_type;location;lat;lon;timestamp;P1;durP1;ratioP1;P2;durP2;ratioP2
79330;SDS011;68797;49.782;19.054;2024-02-15T00:00:51;19.33;;;8.43;;
79330;SDS011;68797;49.782;19.054;2024-02-15T00:03:36;12.05;;;7.03;;
79330;SDS011;68797;49.782;19.054;2024-02-15T00:06:04;17.33;;;7.32;;
79330;SDS011;68797;49.782;19.054;2024-02-15T00:08:31;14.05;;;7.05;;
79330;SDS011;68797;49.782;19.054;2024-02-15T00:11:06;13.35;;;6.95;;
79330;SDS011;68797;49.782;19.054;2024-02-15T00:13:38;14.68;;;6.50;;
79330;SDS011;68797;49.782;19.054;2024-02-15T00:16:05;14.93;;;7.15;;
79330;SDS011;68797;49.782;19.054;2024-02-15T00:18:33;13.98;;;6.68;;
79330;SDS011;68797;49.782;19.054;2024-02-15T00:21:02;12.98;;;6.97;;
79330;SDS011;68797;49.782;19.054;2024-02-15T00:23:30;14.90;;;6.22;;
79330;SDS011;68797;49.782;19.054;2024-02-15T00:26:00;16.23;;;7.60;;
79330;SDS011;68797;49.782;19.054;2024-02-15T00:28:26;15.73;;;8.98;;
79330;SDS011;68797;49.782;19.054;2024-02-15T00:30:53;14.68;;;6.63;;
79330;SDS011;68797;49.782;19.054;2024-02-15T00:33:21;21.20;;;7.75;;
79330;SDS011;68797;49.782;19.054;2024-02-15T00:35:51;16.08;;;8.48;;
79330;SDS011;68797;49.782;19.054;2024-02-15T00:38:20;14.55;;;8.15;;
79330;SDS011;68797;49.782;19.054;2024-02-15T00:40:49;13.07;;;7.78;;
79330;SDS011;68797;49.782;19.054;2024-02-15T00:43:17;15.52;;;7.88;;
79330;SDS011;68797;49.782;19.054;2024-02-15T00:45:56;13.32;;;7.38;;
79330;SDS011;68797;49.782;19.054;2024-02-15T00:48:27;16.08;;;7.60;;
79330;SDS011;68797;49.782;19.054;2024-02-15T00:50:56;15.07;;;8.13;;
79330;SDS011;68797;49.782;19.054;2024-02-15T00:56:27;14.38;;;6.53;;
79330;SDS011;68797;49.782;19.054;2024-02-15T00:58:59;16.85;;;7.40;;
79330;SDS011;68797;49.782;19.054;2024-02-15T01:01:35;14.18;;;7.43;;
79330;SDS011;68797;49.782;19.054;2024-02-15T01:04:05;11.00;;;6.78;;
79330;SDS011;68797;49.782;19.054;2024-02-15T01:06:37;16.23;;;7.15;;
79330;SDS011;68797;49.782;19.054;2024-02-15T01:09:03;14.73;;;7.53;;
79330;SDS011;68797;49.782;19.054;2024-02-15T01:11:32;17.20;;;6.43;;
79330;SDS011;68797;49.782;19.054;2024-02-15T01:14:03;13.90;;;6.68;;
79330;SDS011;68797;49.782;19.054;2024-02-15T01:16:33;9.52;;;5.95;;
79330;SDS011;68797;49.782;19.054;2024-02-15T01:19:03;12.50;;;5.60;;
79330;SDS011;68797;49.782;19.054;2024-02-15T01:21:33;12.05;;;6.07;;
79330;SDS011;68797;49.782;19.054;2024-02-15T01:23:59;11.52;;;5.30;;
79330;SDS011;68797;49.782;19.054;2024-02-15T01:26:28;15.80;;;5.45;;
79330;SDS011;68797;49.782;19.054;2024-02-15T01:28:58;11.13;;;5.20;;
79330;SDS011;68797;49.782;19.054;2024-02-15T01:31:38;9.30;;;5.60;;
79330;SDS011;68797;49.782;19.054;2024-02-15T01:34:06;13.40;;;7.30;;
79330;SDS011;68797;49.782;19.054;2024-02-15T01:36:47;10.90;;;5.72;;
79330;SDS011;68797;49.782;19.054;2024-02-15T01:39:16;13.77;;;5.78;;
79330;SDS011;68797;49.782;19.054;2024-02-15T01:42:09;13.27;;;4.90;;
79330;SDS011;68797;49.782;19.054;2024-02-15T01:44:37;9.00;;;4.78;;
79330;SDS011;68797;49.782;19.054;2024-02-15T01:47:07;13.57;;;5.38;;
79330;SDS011;68797;49.782;19.054;2024-02-15T01:49:35;10.30;;;4.80;;
79330;SDS011;68797;49.782;19.054;2024-02-15T01:54:38;11.40;;;5.50;;
79330;SDS011;68797;49.782;19.054;2024-02-15T01:57:06;13.05;;;5.38;;
79330;SDS011;68797;49.782;19.054;2024-02-15T01:59:34;9.85;;;5.38;;
79330;SDS011;68797;49.782;19.054;2024-02-15T02:02:04;9.63;;;6.00;;
79330;SDS011;68797;49.782;19.054;2024-02-15T02:04:41;9.40;;;4.68;;
79330;SDS011;68797;49.782;19.054;2024-02-15T02:07:16;12.85;;;5.78;;
79330;SDS011;68797;49.782;19.054;2024-02-15T02:09:43;8.40;;;5.28;;
79330;SDS011;68797;49.782;19.054;2024-02-15T02:12:12;12.02;;;6.50;;
79330;SDS011;68797;49.782;19.054;2024-02-15T02:14:45;11.30;;;5.95;;
79330;SDS011;68797;49.782;19.054;2024-02-15T02:17:14;12.82;;;5.97;;
79330;SDS011;68797;49.782;19.054;2024-02-15T02:19:43;11.70;;;5.60;;
79330;SDS011;68797;49.782;19.054;2024-02-15T02:22:11;10.57;;;5.65;;
79330;SDS011;68797;49.782;19.054;2024-02-15T02:27:32;9.57;;;5.45;;
79330;SDS011;68797;49.782;19.054;2024-02-15T02:30:04;10.98;;;5.68;;
79330;SDS011;68797;49.782;19.054;2024-02-15T02:32:36;12.82;;;5.10;;
79330;SDS011;68797;49.782;19.054;2024-02-15T02:35:07;11.75;;;5.72;;
79330;SDS011;68797;49.782;19.054;2024-02-15T02:37:39;10.88;;;4.93;;
79330;SDS011;68797;49.782;19.054;2024-02-15T02:40:12;10.10;;;5.53;;
79330;SDS011;68797;49.782;19.054;2024-02-15T02:42:52;12.57;;;6.28;;
79330;SDS011;68797;49.782;19.054;2024-02-15T02:45:26;10.70;;;6.03;;
79330;SDS011;68797;49.782;19.054;2024-02-15T02:47:57;10.02;;;6.95;;
79330;SDS011;68797;49.782;19.054;2024-02-15T02:50:25;11.80;;;5.60;;
79330;SDS011;68797;49.782;19.054;2024-02-15T02:52:54;12.40;;;6.40;;
79330;SDS011;68797;49.782;19.054;2024-02-15T02:55:22;9.23;;;5.88;;
79330;SDS011;68797;49.782;19.054;2024-02-15T02:57:51;10.15;;;5.50;;
79330;SDS011;68797;49.782;19.054;2024-02-15T03:00:19;10.60;;;5.47;;
79330;SDS011;68797;49.782;19.054;2024-02-15T03:02:48;10.32;;;6.15;;
79330;SDS011;68797;49.782;19.054;2024-02-15T03:05:16;10.75;;;6.13;;
79330;SDS011;68797;49.782;19.054;2024-02-15T03:07:48;10.75;;;5.82;;
79330;SDS011;68797;49.782;19.054;2024-02-15T03:10:17;11.40;;;6.28;;
79330;SDS011;68797;49.782;19.054;2024-02-15T03:12:45;12.57;;;6.15;;
79330;SDS011;68797;49.782;19.054;2024-02-15T03:15:16;8.75;;;5.90;;
79330;SDS011;68797;49.782;19.054;2024-02-15T03:17:46;14.10;;;5.80;;
79330;SDS011;68797;49.782;19.054;2024-02-15T03:20:14;11.93;;;6.78;;
79330;SDS011;68797;49.782;19.054;2024-02-15T03:22:53;12.48;;;6.22;;
79330;SDS011;68797;49.782;19.054;2024-02-15T03:25:23;11.48;;;6.90;;
79330;SDS011;68797;49.782;19.054;2024-02-15T03:27:51;13.48;;;6.28;;
79330;SDS011;68797;49.782;19.054;2024-02-15T03:30:20;12.63;;;7.03;;
79330;SDS011;68797;49.782;19.054;2024-02-15T03:32:49;13.55;;;7.07;;
79330;SDS011;68797;49.782;19.054;2024-02-15T03:35:22;14.05;;;6.90;;
79330;SDS011;68797;49.782;19.054;2024-02-15T03:38:02;16.17;;;6.97;;
79330;SDS011;68797;49.782;19.054;2024-02-15T03:40:30;12.77;;;7.15;;
79330;SDS011;68797;49.782;19.054;2024-02-15T03:42:59;10.93;;;6.95;;
79330;SDS011;68797;49.782;19.054;2024-02-15T03:45:28;14.30;;;6.82;;
79330;SDS011;68797;49.782;19.054;2024-02-15T03:47:57;14.93;;;8.48;;
79330;SDS011;68797;49.782;19.054;2024-02-15T03:50:24;14.68;;;7.60;;
79330;SDS011;68797;49.782;19.054;2024-02-15T03:52:50;12.93;;;7.75;;
79330;SDS011;68797;49.782;19.054;2024-02-15T03:55:18;18.52;;;7.15;;
79330;SDS011;68797;49.782;19.054;2024-02-15T03:57:46;11.93;;;6.85;;
79330;SDS011;68797;49.782;19.054;2024-02-15T04:00:14;13.63;;;6.93;;
79330;SDS011;68797;49.782;19.054;2024-02-15T04:02:44;12.73;;;7.03;;
79330;SDS011;68797;49.782;19.054;2024-02-15T04:05:20;15.93;;;7.40;;
79330;SDS011;68797;49.782;19.054;2024-02-15T04:07:52;17.17;;;7.53;;
79330;SDS011;68797;49.782;19.054;2024-02-15T04:10:20;13.40;;;7.32;;
79330;SDS011;68797;49.782;19.054;2024-02-15T04:12:56;13.18;;;7.85;;
79330;SDS011;68797;49.782;19.054;2024-02-15T04:17:51;12.18;;;6.43;;
79330;SDS011;68797;49.782;19.054;2024-02-15T04:20:23;16.13;;;6.65;;
79330;SDS011;68797;49.782;19.054;2024-02-15T04:22:49;13.40;;;7.55;;
79330;SDS011;68797;49.782;19.054;2024-02-15T04:25:17;10.23;;;6.90;;
79330;SDS011;68797;49.782;19.054;2024-02-15T04:27:51;12.13;;;7.15;;
79330;SDS011;68797;49.782;19.054;2024-02-15T04:30:20;12.85;;;6.38;;
79330;SDS011;68797;49.782;19.054;2024-02-15T04:32:49;12.35;;;6.70;;
79330;SDS011;68797;49.782;19.054;2024-02-15T04:35:18;10.85;;;6.13;;
79330;SDS011;68797;49.782;19.054;2024-02-15T04:37:45;13.30;;;6.85;;
79330;SDS011;68797;49.782;19.054;2024-02-15T04:40:14;11.70;;;6.60;;
79330;SDS011;68797;49.782;19.054;2024-02-15T04:42:41;15.25;;;7.88;;
79330;SDS011;68797;49.782;19.054;2024-02-15T04:45:13;12.73;;;6.65;;
79330;SDS011;68797;49.782;19.054;2024-02-15T04:53:00;13.30;;;7.15;;
79330;SDS011;68797;49.782;19.054;2024-02-15T04:55:26;13.77;;;6.38;;
79330;SDS011;68797;49.782;19.054;2024-02-15T04:57:53;14.45;;;7.47;;
79330;SDS011;68797;49.782;19.054;2024-02-15T05:00:24;11.63;;;7.57;;
79330;SDS011;68797;49.782;19.054;2024-02-15T05:02:53;13.68;;;7.25;;
79330;SDS011;68797;49.782;19.054;2024-02-15T05:05:20;12.70;;;7.70;;
79330;SDS011;68797;49.782;19.054;2024-02-15T05:07:56;14.98;;;7.28;;
79330;SDS011;68797;49.782;19.054;2024-02-15T05:10:24;14.10;;;7.70;;
79330;SDS011;68797;49.782;19.054;2024-02-15T05:12:57;11.25;;;6.65;;
79330;SDS011;68797;49.782;19.054;2024-02-15T05:15:27;18.30;;;6.90;;
79330;SDS011;68797;49.782;19.054;2024-02-15T05:17:57;15.90;;;7.47;;
79330;SDS011;68797;49.782;19.054;2024-02-15T05:20:24;13.35;;;7.38;;
79330;SDS011;68797;49.782;19.054;2024-02-15T05:22:53;10.18;;;6.25;;
79330;SDS011;68797;49.782;19.054;2024-02-15T05:25:21;12.88;;;7.45;;
79330;SDS011;68797;49.782;19.054;2024-02-15T05:27:54;10.35;;;6.38;;
79330;SDS011;68797;49.782;19.054;2024-02-15T05:30:22;11.93;;;6.35;;
79330;SDS011;68797;49.782;19.054;2024-02-15T05:32:51;13.23;;;6.97;;
79330;SDS011;68797;49.782;19.054;2024-02-15T05:35:22;15.60;;;7.70;;
79330;SDS011;68797;49.782;19.054;2024-02-15T05:37:54;16.35;;;6.93;;
79330;SDS011;68797;49.782;19.054;2024-02-15T05:44:23;13.90;;;7.90;;
79330;SDS011;68797;49.782;19.054;2024-02-15T05:47:11;13.05;;;7.72;;
79330;SDS011;68797;49.782;19.054;2024-02-15T05:49:40;13.02;;;6.80;;
79330;SDS011;68797;49.782;19.054;2024-02-15T05:52:56;13.95;;;7.45;;
79330;SDS011;68797;49.782;19.054;2024-02-15T05:56:01;15.38;;;7.10;;
79330;SDS011;68797;49.782;19.054;2024-02-15T05:59:07;11.63;;;6.93;;
79330;SDS011;68797;49.782;19.054;2024-02-15T06:01:46;18.83;;;7.95;;
79330;SDS011;68797;49.782;19.054;2024-02-15T06:04:31;13.40;;;6.78;;
79330;SDS011;68797;49.782;19.054;2024-02-15T06:07:41;13.13;;;6.63;;
79330;SDS011;68797;49.782;19.054;2024-02-15T06:14:17;12.25;;;7.00;;
79330;SDS011;68797;49.782;19.054;2024-02-15T06:17:37;12.88;;;6.78;;
79330;SDS011;68797;49.782;19.054;2024-02-15T06:20:35;13.65;;;6.72;;
79330;SDS011;68797;49.782;19.054;2024-02-15T06:23:33;13.93;;;6.88;;
79330;SDS011;68797;49.782;19.054;2024-02-15T06:26:15;17.33;;;8.45;;
79330;SDS011;68797;49.782;19.054;2024-02-15T06:28:52;12.52;;;7.50;;
79330;SDS011;68797;49.782;19.054;2024-02-15T06:32:41;14.23;;;5.93;;
79330;SDS011;68797;49.782;19.054;2024-02-15T06:35:52;10.38;;;6.15;;
79330;SDS011;68797;49.782;19.054;2024-02-15T06:38:38;11.00;;;6.60;;
79330;SDS011;68797;49.782;19.054;2024-02-15T06:41:27;11.23;;;6.05;;
79330;SDS011;68797;49.782;19.054;2024-02-15T06:43:56;14.98;;;7.22;;
79330;SDS011;68797;49.782;19.054;2024-02-15T06:46:24;10.18;;;6.30;;
79330;SDS011;68797;49.782;19.054;2024-02-15T06:48:50;12.27;;;6.32;;
79330;SDS011;68797;49.782;19.054;2024-02-15T06:51:24;11.80;;;5.95;;
79330;SDS011;68797;49.782;19.054;2024-02-15T06:53:52;13.75;;;6.70;;
79330;SDS011;68797;49.782;19.054;2024-02-15T06:56:24;14.00;;;6.85;;
79330;SDS011;68797;49.782;19.054;2024-02-15T06:58:50;13.95;;;6.25;;
79330;SDS011;68797;49.782;19.054;2024-02-15T07:01:26;14.25;;;7.38;;
79330;SDS011;68797;49.782;19.054;2024-02-15T07:03:54;11.70;;;5.82;;
79330;SDS011;68797;49.782;19.054;2024-02-15T07:06:23;14.10;;;6.85;;
79330;SDS011;68797;49.782;19.054;2024-02-15T07:11:23;18.92;;;7.80;;
79330;SDS011;68797;49.782;19.054;2024-02-15T07:13:50;9.23;;;5.75;;
79330;SDS011;68797;49.782;19.054;2024-02-15T07:16:22;10.68;;;7.00;;
79330;SDS011;68797;49.782;19.054;2024-02-15T07:18:52;12.90;;;6.13;;
79330;SDS011;68797;49.782;19.054;2024-02-15T07:21:20;13.27;;;6.50;;
79330;SDS011;68797;49.782;19.054;2024-02-15T07:23:51;13.57;;;6.65;;
79330;SDS011;68797;49.782;19.054;2024-02-15T07:26:27;14.77;;;6.70;;
79330;SDS011;68797;49.782;19.054;2024-02-15T07:28:54;11.32;;;6.82;;
79330;SDS011;68797;49.782;19.054;2024-02-15T07:31:31;10.93;;;6.43;;
79330;SDS011;68797;49.782;19.054;2024-02-15T07:33:59;12.18;;;6.63;;
79330;SDS011;68797;49.782;19.054;2024-02-15T07:36:26;12.77;;;6.45;;
79330;SDS011;68797;49.782;19.054;2024-02-15T07:38:54;11.52;;;6.85;;
79330;SDS011;68797;49.782;19.054;2024-02-15T07:41:25;12.73;;;7.22;;
79330;SDS011;68797;49.782;19.054;2024-02-15T07:43:53;15.38;;;8.35;;
79330;SDS011;68797;49.782;19.054;2024-02-15T07:46:25;12.80;;;7.03;;
79330;SDS011;68797;49.782;19.054;2024-02-15T07:48:52;15.70;;;7.38;;
79330;SDS011;68797;49.782;19.054;2024-02-15T07:51:20;10.23;;;6.53;;
79330;SDS011;68797;49.782;19.054;2024-02-15T07:53:49;13.88;;;6.60;;
79330;SDS011;68797;49.782;19.054;2024-02-15T07:56:18;14.95;;;7.95;;
79330;SDS011;68797;49.782;19.054;2024-02-15T07:58:47;11.95;;;7.10;;
79330;SDS011;68797;49.782;19.054;2024-02-15T08:01:20;13.63;;;6.82;;
79330;SDS011;68797;49.782;19.054;2024-02-15T08:03:48;15.70;;;7.93;;
79330;SDS011;68797;49.782;19.054;2024-02-15T08:06:15;31.75;;;14.45;;
79330;SDS011;68797;49.782;19.054;2024-02-15T08:08:43;11.63;;;7.55;;
79330;SDS011;68797;49.782;19.054;2024-02-15T08:11:34;13.40;;;6.93;;
79330;SDS011;68797;49.782;19.054;2024-02-15T08:14:02;15.75;;;7.75;;
79330;SDS011;68797;49.782;19.054;2024-02-15T08:16:29;15.15;;;7.47;;
79330;SDS011;68797;49.782;19.054;2024-02-15T08:18:56;13.10;;;7.78;;
79330;SDS011;68797;49.782;19.054;2024-02-15T08:21:29;13.95;;;8.40;;
79330;SDS011;68797;49.782;19.054;2024-02-15T08:24:00;19.48;;;9.63;;
79330;SDS011;68797;49.782;19.054;2024-02-15T08:26:36;17.17;;;9.73;;
79330;SDS011;68797;49.782;19.054;2024-02-15T08:29:04;23.25;;;11.30;;
79330;SDS011;68797;49.782;19.054;2024-02-15T08:31:37;20.17;;;9.45;;
79330;SDS011;68797;49.782;19.054;2024-02-15T08:34:05;23.65;;;11.07;;
79330;SDS011;68797;49.782;19.054;2024-02-15T08:36:36;18.45;;;9.80;;
79330;SDS011;68797;49.782;19.054;2024-02-15T08:39:05;21.70;;;9.85;;
79330;SDS011;68797;49.782;19.054;2024-02-15T08:41:39;15.73;;;9.30;;
79330;SDS011;68797;49.782;19.054;2024-02-15T08:44:07;17.00;;;8.43;;
79330;SDS011;68797;49.782;19.054;2024-02-15T08:46:39;17.38;;;9.23;;
79330;SDS011;68797;49.782;19.054;2024-02-15T08:49:05;17.33;;;8.85;;
79330;SDS011;68797;49.782;19.054;2024-02-15T08:51:32;19.00;;;10.35;;
79330;SDS011;68797;49.782;19.054;2024-02-15T08:54:08;17.92;;;9.02;;
79330;SDS011;68797;49.782;19.054;2024-02-15T08:56:38;16.67;;;7.75;;
79330;SDS011;68797;49.782;19.054;2024-02-15T08:59:04;22.65;;;10.65;;
79330;SDS011;68797;49.782;19.054;2024-02-15T09:01:33;20.23;;;11.43;;
79330;SDS011;68797;49.782;19.054;2024-02-15T09:04:04;21.65;;;10.02;;
79330;SDS011;68797;49.782;19.054;2024-02-15T09:06:32;18.15;;;9.90;;
79330;SDS011;68797;49.782;19.054;2024-02-15T09:08:59;19.35;;;9.38;;
79330;SDS011;68797;49.782;19.054;2024-02-15T09:14:01;20.00;;;9.43;;
79330;SDS011;68797;49.782;19.054;2024-02-15T09:16:28;18.17;;;9.25;;
79330;SDS011;68797;49.782;19.054;2024-02-15T09:18:56;15.90;;;8.52;;
79330;SDS011;68797;49.782;19.054;2024-02-15T09:21:29;16.83;;;7.85;;
79330;SDS011;68797;49.782;19.054;2024-02-15T09:26:34;10.55;;;6.05;;
79330;SDS011;68797;49.782;19.054;2024-02-15T09:29:01;9.93;;;5.55;;
79330;SDS011;68797;49.782;19.054;2024-02-15T09:31:29;7.82;;;4.38;;
79330;SDS011;68797;49.782;19.054;2024-02-15T09:33:55;9.90;;;4.53;;
79330;SDS011;68797;49.782;19.054;2024-02-15T09:36:41;5.68;;;3.47;;
79330;SDS011;68797;49.782;19.054;2024-02-15T09:39:08;5.90;;;3.33;;
79330;SDS011;68797;49.782;19.054;2024-02-15T09:41:40;6.47;;;3.20;;
79330;SDS011;68797;49.782;19.054;2024-02-15T09:44:11;8.10;;;3.67;;
79330;SDS011;68797;49.782;19.054;2024-02-15T09:46:42;7.10;;;3.13;;
79330;SDS011;68797;49.782;19.054;2024-02-15T09:49:11;6.30;;;3.60;;
79330;SDS011;68797;49.782;19.054;2024-02-15T09:51:41;7.82;;;4.30;;
79330;SDS011;68797;49.782;19.054;2024-02-15T09:54:10;8.82;;;4.20;;
79330;SDS011;68797;49.782;19.054;2024-02-15T09:56:39;7.68;;;2.67;;
79330;SDS011;68797;49.782;19.054;2024-02-15T09:59:08;4.15;;;2.55;;
79330;SDS011;68797;49.782;19.054;2024-02-15T10:01:48;6.03;;;2.50;;
79330;SDS011;68797;49.782;19.054;2024-02-15T10:04:18;5.18;;;2.08;;
79330;SDS011;68797;49.782;19.054;2024-02-15T10:06:48;3.83;;;2.20;;
79330;SDS011;68797;49.782;19.054;2024-02-15T10:09:29;5.15;;;3.47;;
79330;SDS011;68797;49.782;19.054;2024-02-15T10:11:57;6.18;;;3.70;;
79330;SDS011;68797;49.782;19.054;2024-02-15T10:14:32;7.07;;;3.85;;
79330;SDS011;68797;49.782;19.054;2024-02-15T10:17:06;8.20;;;3.45;;
79330;SDS011;68797;49.782;19.054;2024-02-15T10:19:39;5.82;;;3.20;;
79330;SDS011;68797;49.782;19.054;2024-02-15T10:22:07;5.05;;;2.70;;
79330;SDS011;68797;49.782;19.054;2024-02-15T10:24:40;3.40;;;2.50;;
79330;SDS011;68797;49.782;19.054;2024-02-15T10:27:12;5.68;;;3.15;;
79330;SDS011;68797;49.782;19.054;2024-02-15T10:29:38;3.10;;;2.13;;
79330;SDS011;68797;49.782;19.054;2024-02-15T10:32:07;4.47;;;2.50;;
79330;SDS011;68797;49.782;19.054;2024-02-15T10:34:46;2.78;;;1.70;;
79330;SDS011;68797;49.782;19.054;2024-02-15T10:37:17;4.68;;;2.45;;
79330;SDS011;68797;49.782;19.054;2024-02-15T10:39:44;3.17;;;2.33;;
79330;SDS011;68797;49.782;19.054;2024-02-15T10:42:15;4.85;;;2.38;;
79330;SDS011;68797;49.782;19.054;2024-02-15T10:44:43;6.55;;;2.30;;
79330;SDS011;68797;49.782;19.054;2024-02-15T10:47:13;4.35;;;2.25;;
79330;SDS011;68797;49.782;19.054;2024-02-15T10:49:42;6.38;;;2.33;;
79330;SDS011;68797;49.782;19.054;2024-02-15T10:52:09;3.70;;;2.33;;
79330;SDS011;68797;49.782;19.054;2024-02-15T10:54:52;4.15;;;2.05;;
79330;SDS011;68797;49.782;19.054;2024-02-15T10:57:37;4.40;;;2.35;;
79330;SDS011;68797;49.782;19.054;2024-02-15T11:00:07;4.38;;;2.30;;
79330;SDS011;68797;49.782;19.054;2024-02-15T11:03:00;4.20;;;2.05;;
79330;SDS011;68797;49.782;19.054;2024-02-15T11:05:35;4.60;;;2.10;;
79330;SDS011;68797;49.782;19.054;2024-02-15T11:08:04;3.30;;;2.10;;
79330;SDS011;68797;49.782;19.054;2024-02-15T11:10:35;2.45;;;1.40;;
79330;SDS011;68797;49.782;19.054;2024-02-15T11:13:02;3.28;;;1.70;;
79330;SDS011;68797;49.782;19.054;2024-02-15T11:15:40;2.50;;;1.75;;
79330;SDS011;68797;49.782;19.054;2024-02-15T11:18:09;4.20;;;1.88;;
79330;SDS011;68797;49.782;19.054;2024-02-15T11:23:06;2.58;;;1.52;;
79330;SDS011;68797;49.782;19.054;2024-02-15T11:25:37;2.78;;;1.67;;
79330;SDS011;68797;49.782;19.054;2024-02-15T11:30:59;2.35;;;1.80;;
79330;SDS011;68797;49.782;19.054;2024-02-15T11:33:32;3.08;;;1.77;;
79330;SDS011;68797;49.782;19.054;2024-02-15T11:36:10;5.85;;;2.53;;
79330;SDS011;68797;49.782;19.054;2024-02-15T11:38:40;3.75;;;1.73;;
79330;SDS011;68797;49.782;19.054;2024-02-15T11:41:10;3.15;;;1.80;;
79330;SDS011;68797;49.782;19.054;2024-02-15T11:46:14;3.67;;;1.95;;
79330;SDS011;68797;49.782;19.054;2024-02-15T11:48:45;3.35;;;2.10;;
79330;SDS011;68797;49.782;19.054;2024-02-15T11:54:20;4.57;;;2.22;;
79330;SDS011;68797;49.782;19.054;2024-02-15T11:56:51;2.40;;;1.70;;
79330;SDS011;68797;49.782;19.054;2024-02-15T11:59:37;2.00;;;1.50;;
79330;SDS011;68797;49.782;19.054;2024-02-15T12:02:20;3.08;;;1.83;;
79330;SDS011;68797;49.782;19.054;2024-02-15T12:08:16;3.67;;;2.00;;
79330;SDS011;68797;49.782;19.054;2024-02-15T12:11:03;3.72;;;2.38;;
79330;SDS011;68797;49.782;19.054;2024-02-15T12:13:52;5.22;;;2.03;;
79330;SDS011;68797;49.782;19.054;2024-02-15T12:16:37;4.20;;;2.17;;
79330;SDS011;68797;49.782;19.054;2024-02-15T12:19:24;4.18;;;2.17;;
79330;SDS011;68797;49.782;19.054;2024-02-15T12:22:00;3.83;;;2.10;;
79330;SDS011;68797;49.782;19.054;2024-02-15T12:24:57;4.55;;;2.25;;
79330;SDS011;68797;49.782;19.054;2024-02-15T12:27:42;4.28;;;2.67;;
79330;SDS011;68797;49.782;19.054;2024-02-15T12:30:15;4.00;;;2.00;;
79330;SDS011;68797;49.782;19.054;2024-02-15T12:32:50;4.07;;;2.85;;
79330;SDS011;68797;49.782;19.054;2024-02-15T12:38:03;3.35;;;2.10;;
79330;SDS011;68797;49.782;19.054;2024-02-15T12:40:32;5.00;;;2.90;;
79330;SDS011;68797;49.782;19.054;2024-02-15T12:43:02;4.45;;;2.50;;
79330;SDS011;68797;49.782;19.054;2024-02-15T12:45:32;4.43;;;2.50;;
79330;SDS011;68797;49.782;19.054;2024-02-15T12:48:09;4.38;;;2.58;;
79330;SDS011;68797;49.782;19.054;2024-02-15T12:50:38;5.95;;;2.83;;
79330;SDS011;68797;49.782;19.054;2024-02-15T12:53:06;6.05;;;2.83;;
79330;SDS011;68797;49.782;19.054;2024-02-15T12:55:36;5.40;;;2.38;;
79330;SDS011;68797;49.782;19.054;2024-02-15T12:58:05;4.32;;;2.50;;
79330;SDS011;68797;49.782;19.054;2024-02-15T13:00:40;4.32;;;2.75;;
79330;SDS011;68797;49.782;19.054;2024-02-15T13:03:11;4.03;;;2.50;;
79330;SDS011;68797;49.782;19.054;2024-02-15T13:05:44;5.57;;;2.90;;
79330;SDS011;68797;49.782;19.054;2024-02-15T13:08:14;6.68;;;3.25;;
79330;SDS011;68797;49.782;19.054;2024-02-15T13:10:43;5.60;;;3.10;;
79330;SDS011;68797;49.782;19.054;2024-02-15T13:13:13;4.20;;;2.70;;
79330;SDS011;68797;49.782;19.054;2024-02-15T13:15:40;5.05;;;2.88;;
79330;SDS011;68797;49.782;19.054;2024-02-15T13:18:08;7.57;;;4.50;;
79330;SDS011;68797;49.782;19.054;2024-02-15T13:20:40;4.32;;;2.80;;
79330;SDS011;68797;49.782;19.054;2024-02-15T13:23:09;3.83;;;2.33;;
79330;SDS011;68797;49.782;19.054;2024-02-15T13:25:49;4.50;;;2.53;;
79330;SDS011;68797;49.782;19.054;2024-02-15T13:28:27;6.05;;;2.75;;
79330;SDS011;68797;49.782;19.054;2024-02-15T13:30:53;4.22;;;2.53;;
79330;SDS011;68797;49.782;19.054;2024-02-15T13:33:24;5.05;;;3.17;;
79330;SDS011;68797;49.782;19.054;2024-02-15T13:35:53;4.18;;;2.65;;
79330;SDS011;68797;49.782;19.054;2024-02-15T13:38:23;4.78;;;2.70;;
79330;SDS011;68797;49.782;19.054;2024-02-15T13:40:50;5.90;;;3.30;;
79330;SDS011;68797;49.782;19.054;2024-02-15T13:43:23;4.20;;;2.80;;
79330;SDS011;68797;49.782;19.054;2024-02-15T13:45:51;6.07;;;3.15;;
79330;SDS011;68797;49.782;19.054;2024-02-15T13:48:20;4.80;;;2.83;;
79330;SDS011;68797;49.782;19.054;2024-02-15T13:50:50;7.22;;;2.95;;
79330;SDS011;68797;49.782;19.054;2024-02-15T13:53:20;5.05;;;3.17;;
79330;SDS011;68797;49.782;19.054;2024-02-15T13:55:48;4.57;;;2.83;;
79330;SDS011;68797;49.782;19.054;2024-02-15T13:58:20;6.22;;;3.67;;
79330;SDS011;68797;49.782;19.054;2024-02-15T14:00:49;6.30;;;3.50;;
79330;SDS011;68797;49.782;19.054;2024-02-15T14:03:19;6.88;;;3.75;;
79330;SDS011;68797;49.782;19.054;2024-02-15T14:05:50;5.63;;;3.97;;
79330;SDS011;68797;49.782;19.054;2024-02-15T14:08:18;7.20;;;3.95;;
79330;SDS011;68797;49.782;19.054;2024-02-15T14:10:48;5.95;;;3.75;;
79330;SDS011;68797;49.782;19.054;2024-02-15T14:13:17;5.68;;;3.72;;
79330;SDS011;68797;49.782;19.054;2024-02-15T14:15:44;7.05;;;3.92;;
79330;SDS011;68797;49.782;19.054;2024-02-15T14:18:14;5.75;;;3.67;;
79330;SDS011;68797;49.782;19.054;2024-02-15T14:20:48;8.07;;;3.35;;
79330;SDS011;68797;49.782;19.054;2024-02-15T14:23:16;9.13;;;4.05;;
79330;SDS011;68797;49.782;19.054;2024-02-15T14:25:43;5.72;;;3.75;;
79330;SDS011;68797;49.782;19.054;2024-02-15T14:28:13;7.03;;;4.05;;
79330;SDS011;68797;49.782;19.054;2024-02-15T14:30:59;6.85;;;4.18;;
79330;SDS011;68797;49.782;19.054;2024-02-15T14:33:47;8.43;;;4.13;;
79330;SDS011;68797;49.782;19.054;2024-02-15T14:36:25;6.95;;;4.25;;
79330;SDS011;68797;49.782;19.054;2024-02-15T14:38:55;8.15;;;4.38;;
79330;SDS011;68797;49.782;19.054;2024-02-15T14:41:23;6.45;;;4.00;;
79330;SDS011;68797;49.782;19.054;2024-02-15T14:43:54;6.95;;;4.03;;
79330;SDS011;68797;49.782;19.054;2024-02-15T14:46:34;6.07;;;4.00;;
79330;SDS011;68797;49.782;19.054;2024-02-15T14:49:08;6.82;;;4.70;;
79330;SDS011;68797;49.782;19.054;2024-02-15T14:51:35;7.70;;;4.53;;
79330;SDS011;68797;49.782;19.054;2024-02-15T14:54:09;9.43;;;5.05;;
79330;SDS011;68797;49.782;19.054;2024-02-15T14:56:36;8.27;;;3.80;;
79330;SDS011;68797;49.782;19.054;2024-02-15T14:59:06;7.40;;;4.55;;
79330;SDS011;68797;49.782;19.054;2024-02-15T15:01:34;5.57;;;3.45;;
79330;SDS011;68797;49.782;19.054;2024-02-15T15:04:03;6.45;;;4.15;;
79330;SDS011;68797;49.782;19.054;2024-02-15T15:06:44;8.18;;;4.10;;
79330;SDS011;68797;49.782;19.054;2024-02-15T15:09:33;6.75;;;3.90;;
79330;SDS011;68797;49.782;19.054;2024-02-15T15:12:18;6.07;;;4.28;;
79330;SDS011;68797;49.782;19.054;2024-02-15T15:15:08;7.80;;;4.00;;
79330;SDS011;68797;49.782;19.054;2024-02-15T15:17:41;8.32;;;4.43;;
79330;SDS011;68797;49.782;19.054;2024-02-15T15:20:19;6.40;;;3.80;;
79330;SDS011;68797;49.782;19.054;2024-02-15T15:22:46;7.03;;;3.65;;
79330;SDS011;68797;49.782;19.054;2024-02-15T15:25:14;6.03;;;3.72;;
79330;SDS011;68797;49.782;19.054;2024-02-15T15:27:41;8.18;;;4.00;;
79330;SDS011;68797;49.782;19.054;2024-02-15T15:30:09;7.15;;;4.22;;
79330;SDS011;68797;49.782;19.054;2024-02-15T15:32:39;5.57;;;3.90;;
79330;SDS011;68797;49.782;19.054;2024-02-15T15:35:14;8.20;;;4.03;;
79330;SDS011;68797;49.782;19.054;2024-02-15T15:37:45;9.10;;;3.45;;
79330;SDS011;68797;49.782;19.054;2024-02-15T15:40:17;7.90;;;4.00;;
79330;SDS011;68797;49.782;19.054;2024-02-15T15:42:52;7.15;;;4.20;;
79330;SDS011;68797;49.782;19.054;2024-02-15T15:45:24;12.18;;;6.40;;